sensor_id;sensor_type;location;lat;lon;timestamp;temperature;humidity
1453;DHT22;720;47.738;7.998;2023-08-17T00:01:55;18.90;99.90
1453;DHT22;720;47.738;7.998;2023-08-17T00:04:21;19.00;99.90
1453;DHT22;720;47.738;7.998;2023-08-17T00:09:13;19.00;99.90
1453;DHT22;720;47.738;7.998;2023-08-17T00:11:39;18.90;99.90
1453;DHT22;720;47.738;7.998;2023-08-17T00:14:05;18.70;99.90
1453;DHT22;720;47.738;7.998;2023-08-17T00:16:31;18.30;99.90
1453;DHT22;720;47.738;7.998;2023-08-17T00:18:56;18.60;99.90
1453;DHT22;720;47.738;7.998;2023-08-17T00:21:22;18.60;99.90
1453;DHT22;720;47.738;7.998;2023-08-17T00:23:48;18.80;99.90
1453;DHT22;720;47.738;7.998;2023-08-17T00:28:40;18.50;99.90
1453;DHT22;720;47.738;7.998;2023-08-17T00:31:06;18.80;99.90
1453;DHT22;720;47.738;7.998;2023-08-17T00:33:32;19.20;99.90
1453;DHT22;720;47.738;7.998;2023-08-17T00:38:24;18.80;99.90
1453;DHT22;720;47.738;7.998;2023-08-17T00:40:49;19.00;99.90
1453;DHT22;720;47.738;7.998;2023-08-17T00:43:15;18.80;99.90
1453;DHT22;720;47.738;7.998;2023-08-17T00:45:41;18.70;99.90
1453;DHT22;720;47.738;7.998;2023-08-17T00:48:08;18.50;99.90
1453;DHT22;720;47.738;7.998;2023-08-17T00:50:34;18.70;99.90
1453;DHT22;720;47.738;7.998;2023-08-17T00:53:00;18.70;99.90
1453;DHT22;720;47.738;7.998;2023-08-17T00:55:26;18.90;99.90
1453;DHT22;720;47.738;7.998;2023-08-17T00:57:53;18.80;99.90
1453;DHT22;720;47.738;7.998;2023-08-17T01:00:20;18.50;99.90
1453;DHT22;720;47.738;7.998;2023-08-17T01:02:46;18.70;99.90
1453;DHT22;720;47.738;7.998;2023-08-17T01:07:38;18.60;99.90
1453;DHT22;720;47.738;7.998;2023-08-17T01:10:04;18.60;99.90
1453;DHT22;720;47.738;7.998;2023-08-17T01:12:33;18.80;99.90
1453;DHT22;720;47.738;7.998;2023-08-17T01:17:37;18.70;99.90
1453;DHT22;720;47.738;7.998;2023-08-17T01:20:06;18.30;99.90
1453;DHT22;720;47.738;7.998;2023-08-17T01:22:35;18.60;99.90
1453;DHT22;720;47.738;7.998;2023-08-17T01:25:02;18.70;99.90
1453;DHT22;720;47.738;7.998;2023-08-17T01:27:41;18.50;99.90
1453;DHT22;720;47.738;7.998;2023-08-17T01:30:08;18.50;99.90
1453;DHT22;720;47.738;7.998;2023-08-17T01:32:41;18.40;99.90
1453;DHT22;720;47.738;7.998;2023-08-17T01:38:17;18.70;99.90
1453;DHT22;720;47.738;7.998;2023-08-17T01:40:46;18.80;99.90
1453;DHT22;720;47.738;7.998;2023-08-17T01:43:13;18.60;99.90
1453;DHT22;720;47.738;7.998;2023-08-17T01:45:40;18.60;99.90
1453;DHT22;720;47.738;7.998;2023-08-17T01:48:05;18.50;99.90
1453;DHT22;720;47.738;7.998;2023-08-17T01:50:31;18.40;99.90
1453;DHT22;720;47.738;7.998;2023-08-17T01:52:57;18.20;99.90
1453;DHT22;720;47.738;7.998;2023-08-17T01:55:22;18.40;99.90
1453;DHT22;720;47.738;7.998;2023-08-17T01:57:49;18.40;99.90
1453;DHT22;720;47.738;7.998;2023-08-17T02:00:15;18.40;99.90
1453;DHT22;720;47.738;7.998;2023-08-17T02:02:41;18.30;99.90
1453;DHT22;720;47.738;7.998;2023-08-17T02:05:07;18.30;99.90
1453;DHT22;720;47.738;7.998;2023-08-17T02:07:32;18.30;99.90
1453;DHT22;720;47.738;7.998;2023-08-17T02:14:50;18.40;99.90
1453;DHT22;720;47.738;7.998;2023-08-17T02:17:16;18.30;99.90
1453;DHT22;720;47.738;7.998;2023-08-17T02:19:45;18.50;99.90
1453;DHT22;720;47.738;7.998;2023-08-17T02:24:38;18.40;99.90
1453;DHT22;720;47.738;7.998;2023-08-17T02:27:04;18.40;99.90
1453;DHT22;720;47.738;7.998;2023-08-17T02:29:30;18.60;99.90
1453;DHT22;720;47.738;7.998;2023-08-17T02:31:55;18.30;99.90
1453;DHT22;720;47.738;7.998;2023-08-17T02:34:21;18.30;99.90
1453;DHT22;720;47.738;7.998;2023-08-17T02:36:47;18.30;99.90
1453;DHT22;720;47.738;7.998;2023-08-17T02:39:12;18.20;99.90
1453;DHT22;720;47.738;7.998;2023-08-17T02:41:38;18.30;99.90
1453;DHT22;720;47.738;7.998;2023-08-17T02:46:30;18.20;99.90
1453;DHT22;720;47.738;7.998;2023-08-17T02:48:56;17.80;99.90
1453;DHT22;720;47.738;7.998;2023-08-17T02:51:21;18.20;99.90
1453;DHT22;720;47.738;7.998;2023-08-17T02:53:47;18.10;99.90
1453;DHT22;720;47.738;7.998;2023-08-17T02:56:13;18.30;99.90
1453;DHT22;720;47.738;7.998;2023-08-17T02:58:39;18.30;99.90
1453;DHT22;720;47.738;7.998;2023-08-17T03:01:08;18.30;99.90
1453;DHT22;720;47.738;7.998;2023-08-17T03:03:34;18.40;99.90
1453;DHT22;720;47.738;7.998;2023-08-17T03:06:01;18.30;99.90
1453;DHT22;720;47.738;7.998;2023-08-17T03:08:26;18.30;99.90
1453;DHT22;720;47.738;7.998;2023-08-17T03:10:52;18.10;99.90
1453;DHT22;720;47.738;7.998;2023-08-17T03:13:17;18.10;99.90
1453;DHT22;720;47.738;7.998;2023-08-17T03:18:09;18.20;99.90
1453;DHT22;720;47.738;7.998;2023-08-17T03:23:01;18.10;99.90
1453;DHT22;720;47.738;7.998;2023-08-17T03:25:26;18.20;99.90
1453;DHT22;720;47.738;7.998;2023-08-17T03:27:52;18.00;99.90
1453;DHT22;720;47.738;7.998;2023-08-17T03:30:18;17.90;99.90
1453;DHT22;720;47.738;7.998;2023-08-17T03:32:43;17.60;99.90
1453;DHT22;720;47.738;7.998;2023-08-17T03:35:09;17.90;99.90
1453;DHT22;720;47.738;7.998;2023-08-17T03:37:35;18.20;99.90
1453;DHT22;720;47.738;7.998;2023-08-17T03:42:27;18.00;99.90
1453;DHT22;720;47.738;7.998;2023-08-17T03:44:53;18.00;99.90
1453;DHT22;720;47.738;7.998;2023-08-17T03:47:19;18.00;99.90
1453;DHT22;720;47.738;7.998;2023-08-17T03:49:44;18.20;99.90
1453;DHT22;720;47.738;7.998;2023-08-17T03:52:11;18.00;99.90
1453;DHT22;720;47.738;7.998;2023-08-17T03:54:37;17.80;99.90
1453;DHT22;720;47.738;7.998;2023-08-17T03:57:03;17.90;99.90
1453;DHT22;720;47.738;7.998;2023-08-17T03:59:28;18.10;99.90
1453;DHT22;720;47.738;7.998;2023-08-17T04:01:54;17.90;99.90
1453;DHT22;720;47.738;7.998;2023-08-17T04:04:20;17.90;99.90
1453;DHT22;720;47.738;7.998;2023-08-17T04:09:11;17.90;99.90
1453;DHT22;720;47.738;7.998;2023-08-17T04:11:37;17.90;99.90
1453;DHT22;720;47.738;7.998;2023-08-17T04:14:03;17.70;99.90
1453;DHT22;720;47.738;7.998;2023-08-17T04:16:29;17.80;99.90
1453;DHT22;720;47.738;7.998;2023-08-17T04:18:55;17.80;99.90
1453;DHT22;720;47.738;7.998;2023-08-17T04:21:20;17.80;99.90
1453;DHT22;720;47.738;7.998;2023-08-17T04:23:46;17.70;99.90
1453;DHT22;720;47.738;7.998;2023-08-17T04:26:12;18.00;99.90
1453;DHT22;720;47.738;7.998;2023-08-17T04:28:38;17.90;99.90
1453;DHT22;720;47.738;7.998;2023-08-17T04:31:03;18.00;99.90
1453;DHT22;720;47.738;7.998;2023-08-17T04:33:29;18.00;99.90
1453;DHT22;720;47.738;7.998;2023-08-17T04:35:55;17.90;99.90
1453;DHT22;720;47.738;7.998;2023-08-17T04:38:20;17.80;99.90
1453;DHT22;720;47.738;7.998;2023-08-17T04:40:46;17.80;99.90
1453;DHT22;720;47.738;7.998;2023-08-17T04:48:05;17.90;99.90
1453;DHT22;720;47.738;7.998;2023-08-17T04:50:31;18.20;99.90
1453;DHT22;720;47.738;7.998;2023-08-17T04:52:57;17.90;99.90
1453;DHT22;720;47.738;7.998;2023-08-17T04:55:23;17.90;99.90
1453;DHT22;720;47.738;7.998;2023-08-17T05:00:15;17.80;99.90
1453;DHT22;720;47.738;7.998;2023-08-17T05:02:41;18.00;99.90
1453;DHT22;720;47.738;7.998;2023-08-17T05:07:34;18.20;99.90
1453;DHT22;720;47.738;7.998;2023-08-17T05:10:00;18.20;99.90
1453;DHT22;720;47.738;7.998;2023-08-17T05:12:26;18.20;99.90
1453;DHT22;720;47.738;7.998;2023-08-17T05:14:52;18.70;99.90
1453;DHT22;720;47.738;7.998;2023-08-17T05:17:17;18.40;99.90
1453;DHT22;720;47.738;7.998;2023-08-17T05:22:11;18.50;99.90
1453;DHT22;720;47.738;7.998;2023-08-17T05:27:03;18.90;99.90
1453;DHT22;720;47.738;7.998;2023-08-17T05:29:28;19.10;99.90
1453;DHT22;720;47.738;7.998;2023-08-17T05:31:54;19.40;99.90
1453;DHT22;720;47.738;7.998;2023-08-17T05:34:20;19.60;99.90
1453;DHT22;720;47.738;7.998;2023-08-17T05:36:45;19.70;99.90
1453;DHT22;720;47.738;7.998;2023-08-17T05:39:11;20.10;99.90
1453;DHT22;720;47.738;7.998;2023-08-17T05:41:37;19.80;99.90
1453;DHT22;720;47.738;7.998;2023-08-17T05:44:03;20.00;99.90
1453;DHT22;720;47.738;7.998;2023-08-17T05:46:28;20.70;99.90
1453;DHT22;720;47.738;7.998;2023-08-17T05:48:54;20.90;99.90
1453;DHT22;720;47.738;7.998;2023-08-17T05:51:20;21.20;99.90
1453;DHT22;720;47.738;7.998;2023-08-17T05:53:45;21.30;99.90
1453;DHT22;720;47.738;7.998;2023-08-17T05:56:11;21.40;99.90
1453;DHT22;720;47.738;7.998;2023-08-17T05:58:36;21.40;99.90
1453;DHT22;720;47.738;7.998;2023-08-17T06:01:06;21.30;99.90
1453;DHT22;720;47.738;7.998;2023-08-17T06:03:33;21.20;99.90
1453;DHT22;720;47.738;7.998;2023-08-17T06:05:59;21.20;99.90
1453;DHT22;720;47.738;7.998;2023-08-17T06:08:24;21.10;99.90
1453;DHT22;720;47.738;7.998;2023-08-17T06:13:16;20.50;99.90
1453;DHT22;720;47.738;7.998;2023-08-17T06:18:08;20.60;99.90
1453;DHT22;720;47.738;7.998;2023-08-17T06:20:33;20.60;99.90
1453;DHT22;720;47.738;7.998;2023-08-17T06:22:59;20.50;99.90
1453;DHT22;720;47.738;7.998;2023-08-17T06:25:24;20.80;99.90
1453;DHT22;720;47.738;7.998;2023-08-17T06:27:51;21.00;99.90
1453;DHT22;720;47.738;7.998;2023-08-17T06:30:17;21.30;99.90
1453;DHT22;720;47.738;7.998;2023-08-17T06:32:43;21.40;99.90
1453;DHT22;720;47.738;7.998;2023-08-17T06:35:08;21.50;99.90
1453;DHT22;720;47.738;7.998;2023-08-17T06:37:34;21.80;99.90
1453;DHT22;720;47.738;7.998;2023-08-17T06:40:00;22.50;99.90
1453;DHT22;720;47.738;7.998;2023-08-17T06:42:26;22.60;99.90
1453;DHT22;720;47.738;7.998;2023-08-17T06:44:52;23.00;99.90
1453;DHT22;720;47.738;7.998;2023-08-17T06:47:17;23.30;99.90
1453;DHT22;720;47.738;7.998;2023-08-17T06:52:09;23.90;99.10
1453;DHT22;720;47.738;7.998;2023-08-17T06:54:34;24.00;99.10
1453;DHT22;720;47.738;7.998;2023-08-17T06:57:01;24.20;99.40
1453;DHT22;720;47.738;7.998;2023-08-17T06:59:26;24.40;99.90
1453;DHT22;720;47.738;7.998;2023-08-17T07:01:52;24.40;98.60
1453;DHT22;720;47.738;7.998;2023-08-17T07:04:18;24.50;98.50
1453;DHT22;720;47.738;7.998;2023-08-17T07:06:43;24.70;98.40
1453;DHT22;720;47.738;7.998;2023-08-17T07:11:38;25.20;97.10
1453;DHT22;720;47.738;7.998;2023-08-17T07:14:03;25.10;97.20
1453;DHT22;720;47.738;7.998;2023-08-17T07:16:31;26.30;97.40
1453;DHT22;720;47.738;7.998;2023-08-17T07:18:56;25.80;96.50
1453;DHT22;720;47.738;7.998;2023-08-17T07:21:22;25.80;96.00
1453;DHT22;720;47.738;7.998;2023-08-17T07:23:48;25.90;95.80
1453;DHT22;720;47.738;7.998;2023-08-17T07:26:14;26.20;95.40
1453;DHT22;720;47.738;7.998;2023-08-17T07:28:40;26.70;95.40
1453;DHT22;720;47.738;7.998;2023-08-17T07:31:06;27.40;94.90
1453;DHT22;720;47.738;7.998;2023-08-17T07:33:31;28.20;93.70
1453;DHT22;720;47.738;7.998;2023-08-17T07:35:57;28.80;92.10
1453;DHT22;720;47.738;7.998;2023-08-17T07:38:23;29.40;91.40
1453;DHT22;720;47.738;7.998;2023-08-17T07:40:49;30.00;90.20
1453;DHT22;720;47.738;7.998;2023-08-17T07:43:15;30.40;88.80
1453;DHT22;720;47.738;7.998;2023-08-17T07:45:40;31.00;87.20
1453;DHT22;720;47.738;7.998;2023-08-17T07:48:06;31.70;84.40
1453;DHT22;720;47.738;7.998;2023-08-17T07:55:26;33.60;72.10
1453;DHT22;720;47.738;7.998;2023-08-17T08:00:18;34.40;68.20
1453;DHT22;720;47.738;7.998;2023-08-17T08:02:43;34.80;66.30
1453;DHT22;720;47.738;7.998;2023-08-17T08:05:09;35.10;64.80
1453;DHT22;720;47.738;7.998;2023-08-17T08:07:35;35.40;63.70
1453;DHT22;720;47.738;7.998;2023-08-17T08:10:00;36.10;62.10
1453;DHT22;720;47.738;7.998;2023-08-17T08:12:26;36.90;58.40
1453;DHT22;720;47.738;7.998;2023-08-17T08:14:52;37.60;57.20
1453;DHT22;720;47.738;7.998;2023-08-17T08:17:17;38.00;55.00
1453;DHT22;720;47.738;7.998;2023-08-17T08:19:44;38.30;53.90
1453;DHT22;720;47.738;7.998;2023-08-17T08:22:10;38.20;53.30
1453;DHT22;720;47.738;7.998;2023-08-17T08:24:36;38.00;52.70
1453;DHT22;720;47.738;7.998;2023-08-17T08:31:54;38.20;50.50
1453;DHT22;720;47.738;7.998;2023-08-17T08:34:19;38.90;51.20
1453;DHT22;720;47.738;7.998;2023-08-17T08:39:12;39.40;47.20
1453;DHT22;720;47.738;7.998;2023-08-17T08:44:04;39.80;48.30
1453;DHT22;720;47.738;7.998;2023-08-17T08:46:32;40.40;45.90
1453;DHT22;720;47.738;7.998;2023-08-17T08:48:59;40.20;45.70
1453;DHT22;720;47.738;7.998;2023-08-17T08:51:28;40.40;46.70
1453;DHT22;720;47.738;7.998;2023-08-17T08:54:03;40.20;45.50
1453;DHT22;720;47.738;7.998;2023-08-17T08:56:35;39.90;46.90
1453;DHT22;720;47.738;7.998;2023-08-17T08:59:04;39.40;47.30
1453;DHT22;720;47.738;7.998;2023-08-17T09:01:33;38.90;47.70
1453;DHT22;720;47.738;7.998;2023-08-17T09:03:59;39.00;46.40
1453;DHT22;720;47.738;7.998;2023-08-17T09:06:29;38.80;46.80
1453;DHT22;720;47.738;7.998;2023-08-17T09:08:57;38.80;47.30
1453;DHT22;720;47.738;7.998;2023-08-17T09:11:24;38.70;48.00
1453;DHT22;720;47.738;7.998;2023-08-17T09:13:49;38.40;48.80
1453;DHT22;720;47.738;7.998;2023-08-17T09:16:15;38.40;49.00
1453;DHT22;720;47.738;7.998;2023-08-17T09:18:41;39.20;46.90
1453;DHT22;720;47.738;7.998;2023-08-17T09:21:07;39.30;44.60
1453;DHT22;720;47.738;7.998;2023-08-17T09:23:33;38.50;43.90
1453;DHT22;720;47.738;7.998;2023-08-17T09:26:07;37.40;45.60
1453;DHT22;720;47.738;7.998;2023-08-17T09:28:33;36.30;47.10
1453;DHT22;720;47.738;7.998;2023-08-17T09:31:03;35.50;47.60
1453;DHT22;720;47.738;7.998;2023-08-17T09:33:30;35.30;49.50
1453;DHT22;720;47.738;7.998;2023-08-17T09:35:57;35.60;48.00
1453;DHT22;720;47.738;7.998;2023-08-17T09:38:23;36.40;45.90
1453;DHT22;720;47.738;7.998;2023-08-17T09:40:50;37.50;44.70
1453;DHT22;720;47.738;7.998;2023-08-17T09:43:16;37.90;43.90
1453;DHT22;720;47.738;7.998;2023-08-17T09:45:44;38.40;44.30
1453;DHT22;720;47.738;7.998;2023-08-17T09:48:15;38.60;42.90
1453;DHT22;720;47.738;7.998;2023-08-17T09:50:43;39.30;42.50
1453;DHT22;720;47.738;7.998;2023-08-17T09:53:17;39.60;41.20
1453;DHT22;720;47.738;7.998;2023-08-17T09:55:46;39.60;41.60
1453;DHT22;720;47.738;7.998;2023-08-17T09:58:13;39.60;40.40
1453;DHT22;720;47.738;7.998;2023-08-17T10:00:50;39.80;40.50
1453;DHT22;720;47.738;7.998;2023-08-17T10:03:17;39.90;41.90
1453;DHT22;720;47.738;7.998;2023-08-17T10:05:46;39.80;39.30
1453;DHT22;720;47.738;7.998;2023-08-17T10:08:15;39.70;39.70
1453;DHT22;720;47.738;7.998;2023-08-17T10:10:44;39.60;41.40
1453;DHT22;720;47.738;7.998;2023-08-17T10:13:11;39.50;41.40
1453;DHT22;720;47.738;7.998;2023-08-17T10:15:51;39.40;40.80
1453;DHT22;720;47.738;7.998;2023-08-17T10:21:37;38.60;42.60
1453;DHT22;720;47.738;7.998;2023-08-17T10:24:04;38.20;42.50
1453;DHT22;720;47.738;7.998;2023-08-17T10:26:31;37.80;43.50
1453;DHT22;720;47.738;7.998;2023-08-17T10:28:59;37.10;44.20
1453;DHT22;720;47.738;7.998;2023-08-17T10:31:27;36.20;43.30
1453;DHT22;720;47.738;7.998;2023-08-17T10:33:53;35.30;45.80
1453;DHT22;720;47.738;7.998;2023-08-17T10:36:19;34.00;45.40
1453;DHT22;720;47.738;7.998;2023-08-17T10:38:46;33.10;49.90
1453;DHT22;720;47.738;7.998;2023-08-17T10:41:13;33.50;46.10
1453;DHT22;720;47.738;7.998;2023-08-17T10:43:56;33.50;46.70
1453;DHT22;720;47.738;7.998;2023-08-17T10:46:32;33.00;45.90
1453;DHT22;720;47.738;7.998;2023-08-17T10:49:04;33.00;46.70
1453;DHT22;720;47.738;7.998;2023-08-17T10:51:31;33.20;45.70
1453;DHT22;720;47.738;7.998;2023-08-17T10:53:59;33.50;45.70
1453;DHT22;720;47.738;7.998;2023-08-17T10:56:29;34.00;47.20
1453;DHT22;720;47.738;7.998;2023-08-17T10:58:59;34.50;47.70
1453;DHT22;720;47.738;7.998;2023-08-17T11:01:36;34.20;46.40
1453;DHT22;720;47.738;7.998;2023-08-17T11:04:16;33.90;46.20
1453;DHT22;720;47.738;7.998;2023-08-17T11:06:45;33.10;48.80
1453;DHT22;720;47.738;7.998;2023-08-17T11:09:11;32.60;48.60
1453;DHT22;720;47.738;7.998;2023-08-17T11:11:37;32.20;49.70
1453;DHT22;720;47.738;7.998;2023-08-17T11:14:03;31.80;51.10
1453;DHT22;720;47.738;7.998;2023-08-17T11:21:24;31.50;51.10
1453;DHT22;720;47.738;7.998;2023-08-17T11:26:17;31.20;53.90
1453;DHT22;720;47.738;7.998;2023-08-17T11:31:11;31.20;50.30
1453;DHT22;720;47.738;7.998;2023-08-17T11:33:38;30.70;53.20
1453;DHT22;720;47.738;7.998;2023-08-17T11:36:06;30.70;53.70
1453;DHT22;720;47.738;7.998;2023-08-17T11:38:37;30.80;50.80
1453;DHT22;720;47.738;7.998;2023-08-17T11:41:06;31.00;47.10
1453;DHT22;720;47.738;7.998;2023-08-17T11:43:34;31.20;47.90
1453;DHT22;720;47.738;7.998;2023-08-17T11:46:01;31.10;47.60
1453;DHT22;720;47.738;7.998;2023-08-17T11:48:27;30.90;48.70
1453;DHT22;720;47.738;7.998;2023-08-17T11:50:53;30.90;49.60
1453;DHT22;720;47.738;7.998;2023-08-17T11:53:20;31.00;48.90
1453;DHT22;720;47.738;7.998;2023-08-17T11:55:46;30.90;46.40
1453;DHT22;720;47.738;7.998;2023-08-17T12:00:42;30.70;47.00
1453;DHT22;720;47.738;7.998;2023-08-17T12:03:13;30.60;47.70
1453;DHT22;720;47.738;7.998;2023-08-17T12:08:07;30.10;48.80
1453;DHT22;720;47.738;7.998;2023-08-17T12:10:33;30.00;48.60
1453;DHT22;720;47.738;7.998;2023-08-17T12:12:59;29.70;45.70
1453;DHT22;720;47.738;7.998;2023-08-17T12:15:33;29.50;47.60
1453;DHT22;720;47.738;7.998;2023-08-17T12:18:02;29.00;48.10
1453;DHT22;720;47.738;7.998;2023-08-17T12:20:28;28.80;47.30
1453;DHT22;720;47.738;7.998;2023-08-17T12:22:57;28.80;48.80
1453;DHT22;720;47.738;7.998;2023-08-17T12:25:23;28.90;47.70
1453;DHT22;720;47.738;7.998;2023-08-17T12:30:33;29.10;48.30
1453;DHT22;720;47.738;7.998;2023-08-17T12:35:27;29.30;48.60
1453;DHT22;720;47.738;7.998;2023-08-17T12:40:20;29.40;48.60
1453;DHT22;720;47.738;7.998;2023-08-17T12:42:47;29.40;48.90
1453;DHT22;720;47.738;7.998;2023-08-17T12:45:13;29.40;48.00
1453;DHT22;720;47.738;7.998;2023-08-17T12:50:05;29.10;45.90
1453;DHT22;720;47.738;7.998;2023-08-17T12:54:57;29.20;47.70
1453;DHT22;720;47.738;7.998;2023-08-17T12:57:23;29.40;48.40
1453;DHT22;720;47.738;7.998;2023-08-17T13:04:41;29.50;50.10
1453;DHT22;720;47.738;7.998;2023-08-17T13:07:07;29.70;47.20
1453;DHT22;720;47.738;7.998;2023-08-17T13:11:59;29.40;48.20
1453;DHT22;720;47.738;7.998;2023-08-17T13:14:25;29.20;48.80
1453;DHT22;720;47.738;7.998;2023-08-17T13:16:51;29.10;49.50
1453;DHT22;720;47.738;7.998;2023-08-17T13:19:17;29.10;49.40
1453;DHT22;720;47.738;7.998;2023-08-17T13:21:43;29.10;56.00
1453;DHT22;720;47.738;7.998;2023-08-17T13:24:08;29.00;51.70
1453;DHT22;720;47.738;7.998;2023-08-17T13:26:34;29.00;58.50
1453;DHT22;720;47.738;7.998;2023-08-17T13:29:00;28.90;56.20
1453;DHT22;720;47.738;7.998;2023-08-17T13:31:25;28.90;58.30
1453;DHT22;720;47.738;7.998;2023-08-17T13:33:51;28.90;56.50
1453;DHT22;720;47.738;7.998;2023-08-17T13:38:44;28.80;56.90
1453;DHT22;720;47.738;7.998;2023-08-17T13:41:10;28.60;58.30
1453;DHT22;720;47.738;7.998;2023-08-17T13:46:02;28.20;62.90
1453;DHT22;720;47.738;7.998;2023-08-17T13:48:28;28.00;66.70
1453;DHT22;720;47.738;7.998;2023-08-17T13:50:53;27.70;66.90
1453;DHT22;720;47.738;7.998;2023-08-17T13:53:19;27.50;67.50
1453;DHT22;720;47.738;7.998;2023-08-17T13:55:44;27.20;68.90
1453;DHT22;720;47.738;7.998;2023-08-17T14:00:37;26.90;72.50
1453;DHT22;720;47.738;7.998;2023-08-17T14:03:03;26.90;75.20
1453;DHT22;720;47.738;7.998;2023-08-17T14:05:29;27.10;73.60
1453;DHT22;720;47.738;7.998;2023-08-17T14:07:55;27.10;74.60
1453;DHT22;720;47.738;7.998;2023-08-17T14:10:20;27.20;73.50
1453;DHT22;720;47.738;7.998;2023-08-17T14:12:46;27.20;75.00
1453;DHT22;720;47.738;7.998;2023-08-17T14:17:39;27.20;73.70
1453;DHT22;720;47.738;7.998;2023-08-17T14:20:05;27.20;76.30
1453;DHT22;720;47.738;7.998;2023-08-17T14:22:30;27.20;77.40
1453;DHT22;720;47.738;7.998;2023-08-17T14:27:22;27.30;71.30
1453;DHT22;720;47.738;7.998;2023-08-17T14:29:48;27.60;73.50
1453;DHT22;720;47.738;7.998;2023-08-17T14:32:13;27.60;74.00
1453;DHT22;720;47.738;7.998;2023-08-17T14:37:05;28.10;70.10
1453;DHT22;720;47.738;7.998;2023-08-17T14:39:31;28.30;92.30
1453;DHT22;720;47.738;7.998;2023-08-17T14:41:56;28.50;65.40
1453;DHT22;720;47.738;7.998;2023-08-17T14:44:22;28.60;66.70
1453;DHT22;720;47.738;7.998;2023-08-17T14:46:48;28.60;68.80
1453;DHT22;720;47.738;7.998;2023-08-17T14:49:13;28.70;67.10
1453;DHT22;720;47.738;7.998;2023-08-17T14:51:40;28.60;70.20
1453;DHT22;720;47.738;7.998;2023-08-17T14:54:09;28.40;65.50
1453;DHT22;720;47.738;7.998;2023-08-17T14:56:34;28.10;67.60
1453;DHT22;720;47.738;7.998;2023-08-17T14:59:00;27.90;68.80
1453;DHT22;720;47.738;7.998;2023-08-17T15:01:27;27.60;68.30
1453;DHT22;720;47.738;7.998;2023-08-17T15:03:53;27.60;69.50
1453;DHT22;720;47.738;7.998;2023-08-17T15:06:18;27.50;69.80
1453;DHT22;720;47.738;7.998;2023-08-17T15:08:52;27.30;70.90
1453;DHT22;720;47.738;7.998;2023-08-17T15:11:17;27.20;72.00
1453;DHT22;720;47.738;7.998;2023-08-17T15:13:43;27.10;73.30
1453;DHT22;720;47.738;7.998;2023-08-17T15:16:09;27.00;71.30
1453;DHT22;720;47.738;7.998;2023-08-17T15:18:35;26.90;71.10
1453;DHT22;720;47.738;7.998;2023-08-17T15:21:00;26.80;69.00
1453;DHT22;720;47.738;7.998;2023-08-17T15:23:26;26.80;70.40
1453;DHT22;720;47.738;7.998;2023-08-17T15:25:51;26.80;72.70
1453;DHT22;720;47.738;7.998;2023-08-17T15:28:17;26.90;71.80
1453;DHT22;720;47.738;7.998;2023-08-17T15:30:43;26.90;71.50
1453;DHT22;720;47.738;7.998;2023-08-17T15:33:08;26.90;71.60
1453;DHT22;720;47.738;7.998;2023-08-17T15:38:00;26.90;73.30
1453;DHT22;720;47.738;7.998;2023-08-17T15:40:25;26.90;71.90
1453;DHT22;720;47.738;7.998;2023-08-17T15:42:51;26.90;72.10
1453;DHT22;720;47.738;7.998;2023-08-17T15:45:17;26.90;72.20
1453;DHT22;720;47.738;7.998;2023-08-17T15:47:47;26.90;70.80
1453;DHT22;720;47.738;7.998;2023-08-17T15:50:12;26.90;73.00
1453;DHT22;720;47.738;7.998;2023-08-17T15:52:38;26.90;73.20
1453;DHT22;720;47.738;7.998;2023-08-17T15:55:05;26.90;75.60
1453;DHT22;720;47.738;7.998;2023-08-17T15:57:31;26.80;71.80
1453;DHT22;720;47.738;7.998;2023-08-17T15:59:56;26.60;76.00
1453;DHT22;720;47.738;7.998;2023-08-17T16:02:22;26.60;76.70
1453;DHT22;720;47.738;7.998;2023-08-17T16:04:48;26.70;74.80
1453;DHT22;720;47.738;7.998;2023-08-17T16:07:13;26.60;77.80
1453;DHT22;720;47.738;7.998;2023-08-17T16:09:39;26.60;96.90
1453;DHT22;720;47.738;7.998;2023-08-17T16:12:05;26.60;79.80
1453;DHT22;720;47.738;7.998;2023-08-17T16:14:32;26.50;80.70
1453;DHT22;720;47.738;7.998;2023-08-17T16:19:24;26.30;96.40
1453;DHT22;720;47.738;7.998;2023-08-17T16:21:50;26.40;81.60
1453;DHT22;720;47.738;7.998;2023-08-17T16:26:42;26.30;80.80
1453;DHT22;720;47.738;7.998;2023-08-17T16:29:07;26.20;83.20
1453;DHT22;720;47.738;7.998;2023-08-17T16:31:34;26.00;83.50
1453;DHT22;720;47.738;7.998;2023-08-17T16:34:01;25.80;80.10
1453;DHT22;720;47.738;7.998;2023-08-17T16:38:53;25.70;81.30
1453;DHT22;720;47.738;7.998;2023-08-17T16:41:18;25.40;80.90
1453;DHT22;720;47.738;7.998;2023-08-17T16:43:44;25.30;82.40
1453;DHT22;720;47.738;7.998;2023-08-17T16:46:10;25.00;82.70
1453;DHT22;720;47.738;7.998;2023-08-17T16:48:35;24.80;83.50
1453;DHT22;720;47.738;7.998;2023-08-17T16:51:01;24.50;81.80
1453;DHT22;720;47.738;7.998;2023-08-17T16:53:27;24.30;83.10
1453;DHT22;720;47.738;7.998;2023-08-17T17:00:44;23.80;84.10
1453;DHT22;720;47.738;7.998;2023-08-17T17:03:10;23.50;98.60
1453;DHT22;720;47.738;7.998;2023-08-17T17:08:02;23.70;84.40
1453;DHT22;720;47.738;7.998;2023-08-17T17:10:28;23.70;85.50
1453;DHT22;720;47.738;7.998;2023-08-17T17:12:54;23.70;85.20
1453;DHT22;720;47.738;7.998;2023-08-17T17:15:20;23.50;83.90
1453;DHT22;720;47.738;7.998;2023-08-17T17:20:12;23.30;83.00
1453;DHT22;720;47.738;7.998;2023-08-17T17:22:38;23.30;84.70
1453;DHT22;720;47.738;7.998;2023-08-17T17:25:03;23.30;82.50
1453;DHT22;720;47.738;7.998;2023-08-17T17:27:30;23.30;84.10
1453;DHT22;720;47.738;7.998;2023-08-17T17:34:47;23.30;85.40
1453;DHT22;720;47.738;7.998;2023-08-17T17:42:05;23.10;88.90
1453;DHT22;720;47.738;7.998;2023-08-17T17:44:31;23.10;89.20
1453;DHT22;720;47.738;7.998;2023-08-17T17:46:56;23.10;89.50
1453;DHT22;720;47.738;7.998;2023-08-17T17:49:22;23.00;99.90
1453;DHT22;720;47.738;7.998;2023-08-17T17:51:48;23.00;89.00
1453;DHT22;720;47.738;7.998;2023-08-17T17:54:13;23.10;88.00
1453;DHT22;720;47.738;7.998;2023-08-17T17:56:42;23.20;99.90
1453;DHT22;720;47.738;7.998;2023-08-17T17:59:08;23.10;89.00
1453;DHT22;720;47.738;7.998;2023-08-17T18:01:34;23.00;87.90
1453;DHT22;720;47.738;7.998;2023-08-17T18:04:00;23.00;87.50
1453;DHT22;720;47.738;7.998;2023-08-17T18:06:26;23.10;87.70
1453;DHT22;720;47.738;7.998;2023-08-17T18:08:52;23.00;88.80
1453;DHT22;720;47.738;7.998;2023-08-17T18:11:17;23.00;90.30
1453;DHT22;720;47.738;7.998;2023-08-17T18:13:43;22.90;90.60
1453;DHT22;720;47.738;7.998;2023-08-17T18:16:09;22.80;99.90
1453;DHT22;720;47.738;7.998;2023-08-17T18:18:34;22.80;90.40
1453;DHT22;720;47.738;7.998;2023-08-17T18:21:05;22.90;90.40
1453;DHT22;720;47.738;7.998;2023-08-17T18:23:33;23.10;99.90
1453;DHT22;720;47.738;7.998;2023-08-17T18:25:58;22.70;91.00
1453;DHT22;720;47.738;7.998;2023-08-17T18:28:24;22.60;92.00
1453;DHT22;720;47.738;7.998;2023-08-17T18:30:50;22.40;92.30
1453;DHT22;720;47.738;7.998;2023-08-17T18:38:07;22.30;93.60
1453;DHT22;720;47.738;7.998;2023-08-17T18:40:33;22.20;93.70
1453;DHT22;720;47.738;7.998;2023-08-17T18:42:58;22.10;94.40
1453;DHT22;720;47.738;7.998;2023-08-17T18:45:24;21.80;99.90
1453;DHT22;720;47.738;7.998;2023-08-17T18:47:50;22.00;99.90
1453;DHT22;720;47.738;7.998;2023-08-17T18:50:15;21.70;95.60
1453;DHT22;720;47.738;7.998;2023-08-17T18:52:42;21.40;99.90
1453;DHT22;720;47.738;7.998;2023-08-17T18:55:08;21.70;95.90